createdAt,value
2022-08-17T00:00:43.901Z,7.33
2022-08-17T00:03:17.383Z,7.33
2022-08-17T00:05:49.238Z,7.00
2022-08-17T00:08:18.117Z,7.43
2022-08-17T00:10:45.868Z,7.23
2022-08-17T00:13:27.567Z,7.60
2022-08-17T00:16:02.343Z,7.20
2022-08-17T00:19:01.093Z,6.37
2022-08-17T00:21:23.727Z,7.57
2022-08-17T00:23:53.193Z,7.90
2022-08-17T00:26:44.303Z,7.53
2022-08-17T00:29:08.636Z,7.30
2022-08-17T00:31:36.430Z,7.30
2022-08-17T00:34:05.353Z,7.33
2022-08-17T00:36:35.626Z,7.00
2022-08-17T00:39:03.431Z,7.07
2022-08-17T00:41:31.046Z,8.30
2022-08-17T00:44:01.840Z,8.43
2022-08-17T00:46:36.417Z,8.37
2022-08-17T00:49:05.429Z,8.10
2022-08-17T00:51:37.769Z,8.30
2022-08-17T00:54:07.544Z,8.40
2022-08-17T00:56:38.522Z,8.37
2022-08-17T00:59:09.381Z,8.87
2022-08-17T01:01:37.936Z,8.57
2022-08-17T01:04:06.309Z,8.63
2022-08-17T01:06:34.023Z,9.10
2022-08-17T01:09:04.436Z,7.70
2022-08-17T01:11:33.212Z,8.77
2022-08-17T01:14:00.402Z,9.03
2022-08-17T01:16:30.721Z,7.97
2022-08-17T01:19:05.299Z,8.90
2022-08-17T01:21:41.418Z,8.30
2022-08-17T01:24:08.857Z,8.77
2022-08-17T01:26:37.207Z,8.80
2022-08-17T01:29:06.179Z,8.20
2022-08-17T01:31:38.865Z,8.80
2022-08-17T01:34:10.722Z,8.20
2022-08-17T01:36:40.724Z,8.03
2022-08-17T01:39:16.226Z,8.70
2022-08-17T01:41:46.552Z,8.13
2022-08-17T01:44:15.857Z,8.53
2022-08-17T01:46:42.907Z,8.07
2022-08-17T01:49:11.583Z,7.80
2022-08-17T01:51:39.207Z,8.27
2022-08-17T01:54:13.473Z,8.37
2022-08-17T01:56:44.059Z,8.20
2022-08-17T01:59:16.216Z,8.80
2022-08-17T02:01:43.943Z,7.70
2022-08-17T02:04:11.902Z,7.10
2022-08-17T02:06:44.962Z,7.60
2022-08-17T02:09:16.872Z,7.23
2022-08-17T02:11:46.242Z,7.30
2022-08-17T02:14:14.104Z,8.17
2022-08-17T02:16:41.859Z,7.80
2022-08-17T02:19:13.499Z,8.23
2022-08-17T02:21:43.342Z,7.60
2022-08-17T02:24:13.060Z,8.03
2022-08-17T02:26:40.143Z,7.40
2022-08-17T02:29:07.398Z,7.40
2022-08-17T02:31:35.627Z,7.37
2022-08-17T02:34:04.663Z,8.07
2022-08-17T02:36:36.189Z,7.37
2022-08-17T02:39:05.916Z,8.20
2022-08-17T02:41:33.576Z,8.47
2022-08-17T02:44:02.450Z,8.53
2022-08-17T02:46:31.539Z,8.40
2022-08-17T02:48:59.241Z,7.90
2022-08-17T02:51:26.927Z,8.43
2022-08-17T02:54:39.169Z,8.40
2022-08-17T02:56:40.941Z,8.23
2022-08-17T02:59:08.596Z,8.67
2022-08-17T03:01:35.544Z,8.40
2022-08-17T03:04:02.799Z,8.40
2022-08-17T03:06:30.463Z,8.57
2022-08-17T03:08:57.541Z,8.37
2022-08-17T03:11:24.598Z,6.93
2022-08-17T03:13:51.570Z,7.53
2022-08-17T03:16:19.023Z,7.30
2022-08-17T03:18:46.326Z,7.77
2022-08-17T03:21:13.281Z,8.50
2022-08-17T03:23:42.202Z,9.00
2022-08-17T03:26:15.407Z,9.00
2022-08-17T03:28:42.693Z,9.67
2022-08-17T03:31:14.990Z,8.50
2022-08-17T03:33:41.913Z,8.73
2022-08-17T03:36:09.400Z,7.77
2022-08-17T03:38:39.388Z,7.40
2022-08-17T03:41:07.174Z,7.27
2022-08-17T03:43:34.723Z,7.97
2022-08-17T03:46:28.123Z,7.50
2022-08-17T03:49:23.438Z,7.50
2022-08-17T03:52:08.903Z,7.93
2022-08-17T03:54:55.268Z,7.77
2022-08-17T03:57:22.408Z,7.53
2022-08-17T03:59:49.999Z,7.47
2022-08-17T04:02:23.365Z,7.50
2022-08-17T04:04:51.200Z,7.63
2022-08-17T04:07:23.328Z,7.00
2022-08-17T04:09:50.857Z,8.13
2022-08-17T04:12:20.722Z,8.07
2022-08-17T04:14:53.656Z,7.77
2022-08-17T04:17:25.042Z,8.00
2022-08-17T04:19:53.057Z,7.80
2022-08-17T04:22:30.667Z,7.63
2022-08-17T04:25:17.683Z,7.90
2022-08-17T04:27:44.816Z,8.33
2022-08-17T04:30:12.736Z,8.60
2022-08-17T04:33:05.866Z,7.93
2022-08-17T04:35:59.116Z,9.00
2022-08-17T04:38:32.154Z,8.10
2022-08-17T04:41:20.705Z,8.20
2022-08-17T04:43:52.128Z,7.87
2022-08-17T04:46:20.935Z,8.43
2022-08-17T04:48:54.617Z,7.83
2022-08-17T04:51:26.027Z,7.90
2022-08-17T04:53:56.645Z,8.00
2022-08-17T04:56:27.102Z,7.77
2022-08-17T04:58:58.559Z,7.83
2022-08-17T05:01:28.268Z,8.47
2022-08-17T05:03:59.731Z,8.47
2022-08-17T05:06:30.275Z,7.87
2022-08-17T05:08:59.969Z,7.83
2022-08-17T05:11:28.550Z,7.73
2022-08-17T05:13:58.851Z,7.23
2022-08-17T05:16:28.741Z,8.27
2022-08-17T05:18:56.867Z,7.13
2022-08-17T05:21:23.806Z,7.30
2022-08-17T05:23:56.278Z,6.63
2022-08-17T05:26:26.655Z,7.67
2022-08-17T05:29:02.500Z,6.97
2022-08-17T05:31:30.923Z,6.47
2022-08-17T05:33:58.702Z,6.27
2022-08-17T05:36:43.386Z,6.03
2022-08-17T05:39:16.398Z,7.00
2022-08-17T05:41:47.915Z,7.47
2022-08-17T05:44:17.710Z,6.43
2022-08-17T05:46:50.230Z,6.50
2022-08-17T05:49:24.557Z,5.87
2022-08-17T05:52:19.933Z,6.20
2022-08-17T05:55:13.507Z,7.00
2022-08-17T05:57:53.784Z,6.77
2022-08-17T06:00:30.125Z,5.80
2022-08-17T06:03:38.644Z,5.90
2022-08-17T06:06:40.714Z,6.23
2022-08-17T06:09:11.471Z,5.50
2022-08-17T06:11:55.085Z,6.00
2022-08-17T06:14:55.980Z,6.13
2022-08-17T06:17:25.292Z,6.83
2022-08-17T06:20:02.827Z,5.70
2022-08-17T06:22:34.889Z,6.13
2022-08-17T06:25:12.781Z,7.50
2022-08-17T06:28:04.362Z,8.33
2022-08-17T06:30:59.995Z,7.10
2022-08-17T06:33:36.253Z,6.80
2022-08-17T06:36:35.116Z,6.90
2022-08-17T06:39:26.626Z,6.97
2022-08-17T06:42:54.673Z,7.37
2022-08-17T06:45:21.371Z,5.70
2022-08-17T06:48:14.093Z,8.40
2022-08-17T06:50:53.557Z,6.37
2022-08-17T06:53:30.016Z,6.60
2022-08-17T06:56:04.639Z,6.83
2022-08-17T06:58:33.561Z,6.47
2022-08-17T07:01:08.521Z,7.87
2022-08-17T07:03:55.428Z,7.77
2022-08-17T07:06:28.964Z,5.97
2022-08-17T07:09:06.908Z,7.43
2022-08-17T07:11:50.845Z,7.73
2022-08-17T07:14:29.945Z,4.90
2022-08-17T07:16:59.852Z,5.17
2022-08-17T07:19:31.929Z,4.60
2022-08-17T07:22:17.266Z,4.40
2022-08-17T07:24:47.488Z,4.10
2022-08-17T07:27:18.254Z,4.00
2022-08-17T07:29:54.853Z,4.07
2022-08-17T07:32:31.627Z,3.80
2022-08-17T07:35:10.671Z,4.47
2022-08-17T07:37:43.413Z,4.10
2022-08-17T07:40:27.456Z,4.40
2022-08-17T07:43:29.659Z,4.10
2022-08-17T07:46:45.574Z,3.60
2022-08-17T07:49:14.134Z,4.53
2022-08-17T07:51:52.983Z,3.90
2022-08-17T07:54:29.051Z,3.77
2022-08-17T07:57:13.086Z,4.03
2022-08-17T08:00:06.463Z,4.10
2022-08-17T08:02:44.898Z,4.30
2022-08-17T08:05:13.691Z,4.63
2022-08-17T08:08:24.625Z,3.50
2022-08-17T08:11:12.154Z,4.23
2022-08-17T08:13:46.038Z,4.00
2022-08-17T08:16:14.059Z,4.53
2022-08-17T08:18:54.498Z,4.07
2022-08-17T08:21:51.693Z,3.50
2022-08-17T08:24:40.387Z,4.20
2022-08-17T08:27:19.186Z,5.20
2022-08-17T08:29:55.784Z,5.23
2022-08-17T08:32:42.916Z,3.47
2022-08-17T08:35:51.081Z,3.33
2022-08-17T08:38:24.439Z,4.20
2022-08-17T08:41:26.779Z,4.00
2022-08-17T08:44:08.118Z,3.80
2022-08-17T08:47:04.538Z,4.40
2022-08-17T08:50:02.818Z,3.60
2022-08-17T08:53:03.669Z,3.93
2022-08-17T08:55:46.273Z,4.20
2022-08-17T08:58:31.837Z,4.17
2022-08-17T09:01:35.932Z,4.07
2022-08-17T09:04:55.886Z,4.07
2022-08-17T09:07:41.233Z,3.90
2022-08-17T09:10:25.866Z,4.60
2022-08-17T09:13:22.172Z,3.70
2022-08-17T09:15:59.325Z,3.53
2022-08-17T09:19:02.862Z,3.60
2022-08-17T09:21:48.004Z,3.90
2022-08-17T09:24:28.517Z,3.80
2022-08-17T09:27:22.343Z,3.97
2022-08-17T09:30:04.363Z,4.00
2022-08-17T09:33:06.434Z,4.10
2022-08-17T09:35:59.447Z,3.80
2022-08-17T09:39:09.131Z,3.67
2022-08-17T09:41:49.024Z,3.97
2022-08-17T09:44:51.659Z,3.67
2022-08-17T09:47:46.149Z,3.67
2022-08-17T09:51:03.771Z,4.10
2022-08-17T09:53:16.354Z,3.80
2022-08-17T09:56:03.449Z,3.67
2022-08-17T09:58:39.504Z,3.90
2022-08-17T10:01:31.953Z,4.73
2022-08-17T10:04:22.848Z,3.60
2022-08-17T10:07:06.492Z,3.90
2022-08-17T10:10:06.461Z,3.53
2022-08-17T10:12:46.459Z,4.23
2022-08-17T10:15:22.605Z,3.50
2022-08-17T10:18:23.938Z,3.97
2022-08-17T10:21:24.056Z,3.50
2022-08-17T10:24:16.499Z,3.53
2022-08-17T10:26:56.598Z,4.00
2022-08-17T10:29:50.610Z,3.93
2022-08-17T10:32:39.895Z,3.78
2022-08-17T10:35:48.794Z,3.90
2022-08-17T10:38:32.243Z,4.30
2022-08-17T10:41:27.490Z,3.88
2022-08-17T10:44:40.197Z,3.90
2022-08-17T10:47:12.913Z,3.45
2022-08-17T10:49:48.022Z,3.70
2022-08-17T10:52:31.184Z,4.65
2022-08-17T10:55:15.338Z,4.22
2022-08-17T10:57:48.212Z,5.60
2022-08-17T11:00:40.669Z,4.03
2022-08-17T11:03:21.313Z,3.75
2022-08-17T11:06:37.457Z,3.77
2022-08-17T11:09:42.142Z,3.77
2022-08-17T11:12:31.831Z,3.90
2022-08-17T11:15:14.297Z,4.00
2022-08-17T11:18:07.125Z,3.57
2022-08-17T11:21:01.336Z,3.90
2022-08-17T11:23:46.400Z,4.00
2022-08-17T11:26:31.879Z,3.45
2022-08-17T11:29:09.714Z,3.85
2022-08-17T11:31:44.430Z,3.63
2022-08-17T11:34:15.958Z,4.33
2022-08-17T11:37:33.913Z,3.78
2022-08-17T11:40:07.422Z,4.07
2022-08-17T11:42:41.400Z,3.90
2022-08-17T11:45:40.923Z,4.05
2022-08-17T11:48:33.815Z,3.63
2022-08-17T11:51:33.673Z,3.75
2022-08-17T11:54:32.845Z,3.95
2022-08-17T11:56:54.243Z,3.58
2022-08-17T11:59:32.698Z,3.92
2022-08-17T12:02:02.485Z,4.00
2022-08-17T12:04:37.162Z,3.88
2022-08-17T12:07:08.333Z,3.70
2022-08-17T12:09:43.666Z,3.45
2022-08-17T12:12:17.569Z,3.25
2022-08-17T12:15:11.790Z,3.60
2022-08-17T12:17:42.898Z,3.75
2022-08-17T12:20:24.841Z,3.40
2022-08-17T12:23:30.797Z,3.63
2022-08-17T12:26:07.589Z,3.97
2022-08-17T12:28:57.464Z,3.75
2022-08-17T12:31:34.497Z,3.45
2022-08-17T12:34:04.602Z,3.90
2022-08-17T12:36:33.526Z,4.07
2022-08-17T12:39:12.216Z,4.15
2022-08-17T12:41:50.323Z,3.63
2022-08-17T12:44:29.477Z,3.67
2022-08-17T12:46:56.817Z,3.95
2022-08-17T12:49:37.529Z,3.78
2022-08-17T12:52:11.568Z,3.60
2022-08-17T12:54:40.565Z,3.38
2022-08-17T12:57:19.985Z,3.58
2022-08-17T12:59:53.539Z,3.80
2022-08-17T13:02:39.263Z,3.85
2022-08-17T13:05:08.400Z,3.58
2022-08-17T13:07:43.771Z,3.72
2022-08-17T13:10:22.552Z,3.53
2022-08-17T13:12:51.513Z,3.30
2022-08-17T13:15:45.082Z,4.65
2022-08-17T13:18:40.596Z,4.03
2022-08-17T13:21:12.766Z,4.40
2022-08-17T13:23:39.968Z,4.65
2022-08-17T13:26:27.376Z,4.13
2022-08-17T13:28:55.415Z,4.53
2022-08-17T13:31:32.413Z,3.72
2022-08-17T13:34:33.856Z,3.60
2022-08-17T13:37:26.934Z,3.50
2022-08-17T13:39:55.351Z,3.55
2022-08-17T13:42:29.540Z,3.50
2022-08-17T13:44:58.794Z,4.00
2022-08-17T13:47:27.850Z,4.35
2022-08-17T13:49:55.874Z,4.45
2022-08-17T13:52:39.444Z,4.10
2022-08-17T13:55:19.028Z,4.47
2022-08-17T13:57:50.430Z,4.07
2022-08-17T14:00:36.580Z,3.85
2022-08-17T14:03:05.025Z,4.20
2022-08-17T14:05:33.929Z,3.72
2022-08-17T14:08:06.719Z,3.95
2022-08-17T14:10:38.901Z,5.05
2022-08-17T14:13:07.603Z,4.25
2022-08-17T14:15:56.209Z,3.80
2022-08-17T14:18:55.462Z,3.75
2022-08-17T14:21:12.761Z,3.53
2022-08-17T14:23:40.969Z,3.65
2022-08-17T14:26:14.243Z,3.60
2022-08-17T14:28:43.035Z,3.35
2022-08-17T14:31:22.885Z,3.20
2022-08-17T14:33:52.423Z,3.38
2022-08-17T14:36:19.463Z,3.42
2022-08-17T14:38:46.432Z,3.80
2022-08-17T14:41:25.344Z,3.40
2022-08-17T14:43:53.487Z,3.47
2022-08-17T14:46:20.588Z,3.85
2022-08-17T14:48:47.762Z,3.67
2022-08-17T14:51:17.550Z,3.65
2022-08-17T14:53:46.109Z,3.60
2022-08-17T14:56:14.233Z,3.83
2022-08-17T14:58:42.568Z,3.40
2022-08-17T15:01:14.160Z,3.35
2022-08-17T15:03:42.164Z,3.22
2022-08-17T15:06:14.645Z,3.25
2022-08-17T15:08:44.566Z,3.70
2022-08-17T15:11:14.741Z,3.47
2022-08-17T15:13:51.966Z,3.35
2022-08-17T15:16:20.795Z,3.00
2022-08-17T15:18:49.701Z,3.28
2022-08-17T15:21:18.833Z,3.53
2022-08-17T15:23:50.315Z,3.20
2022-08-17T15:26:20.663Z,3.03
2022-08-17T15:28:54.279Z,3.50
2022-08-17T15:31:31.715Z,3.00
2022-08-17T15:33:59.853Z,3.30
2022-08-17T15:36:26.872Z,3.65
2022-08-17T15:39:02.345Z,3.45
2022-08-17T15:41:31.316Z,3.67
2022-08-17T15:43:58.323Z,4.00
2022-08-17T15:46:33.398Z,3.83
2022-08-17T15:49:04.548Z,3.72
2022-08-17T15:51:33.860Z,3.35
2022-08-17T15:54:18.757Z,4.20
2022-08-17T15:56:53.679Z,3.28
2022-08-17T15:59:21.195Z,2.97
2022-08-17T16:03:13.484Z,3.45
2022-08-17T16:04:35.697Z,3.00
2022-08-17T16:07:07.267Z,3.28
2022-08-17T16:09:36.747Z,2.83
2022-08-17T16:12:16.777Z,2.80
2022-08-17T16:14:45.546Z,2.70
2022-08-17T16:17:39.127Z,3.17
2022-08-17T16:19:59.667Z,3.13
2022-08-17T16:22:33.745Z,3.03
2022-08-17T16:25:05.499Z,2.83
2022-08-17T16:27:32.530Z,3.35
2022-08-17T16:29:59.499Z,3.23
2022-08-17T16:32:31.706Z,2.75
2022-08-17T16:35:06.695Z,2.97
2022-08-17T16:37:34.313Z,3.00
2022-08-17T16:40:02.512Z,2.87
2022-08-17T16:42:34.075Z,2.80
2022-08-17T16:45:09.776Z,2.83
2022-08-17T16:47:37.887Z,2.93
2022-08-17T16:50:07.414Z,3.23
2022-08-17T16:52:36.130Z,3.40
2022-08-17T16:55:05.191Z,3.20
2022-08-17T16:57:33.776Z,3.27
2022-08-17T17:00:00.772Z,3.17
2022-08-17T17:02:33.283Z,3.43
2022-08-17T17:05:25.215Z,3.00
2022-08-17T17:08:04.456Z,3.30
2022-08-17T17:10:43.427Z,3.97
2022-08-17T17:13:21.196Z,3.50
2022-08-17T17:16:18.424Z,3.00
2022-08-17T17:18:53.513Z,3.20
2022-08-17T17:21:25.908Z,3.80
2022-08-17T17:23:59.999Z,3.00
2022-08-17T17:26:45.373Z,2.90
2022-08-17T17:29:48.264Z,3.07
2022-08-17T17:32:38.085Z,3.37
2022-08-17T17:35:27.774Z,3.00
2022-08-17T17:37:57.469Z,2.80
2022-08-17T17:40:45.271Z,3.10
2022-08-17T17:43:41.780Z,2.90
2022-08-17T17:46:41.077Z,3.37
2022-08-17T17:49:14.562Z,3.17
2022-08-17T17:52:11.084Z,3.30
2022-08-17T17:55:05.828Z,2.97
2022-08-17T17:58:03.621Z,3.63
2022-08-17T18:00:36.375Z,3.10
2022-08-17T18:03:24.716Z,3.00
2022-08-17T18:06:31.144Z,3.10
2022-08-17T18:09:27.569Z,3.00
2022-08-17T18:12:22.637Z,3.13
2022-08-17T18:15:21.512Z,3.33
2022-08-17T18:18:22.733Z,3.30
2022-08-17T18:20:56.274Z,3.40
2022-08-17T18:23:28.008Z,3.43
2022-08-17T18:25:57.185Z,3.00
2022-08-17T18:28:40.126Z,3.20
2022-08-17T18:31:15.103Z,3.33
2022-08-17T18:33:46.576Z,3.20
2022-08-17T18:36:25.555Z,3.27
2022-08-17T18:39:16.907Z,3.63
2022-08-17T18:41:48.365Z,3.40
2022-08-17T18:44:40.747Z,3.33
2022-08-17T18:47:15.628Z,3.50
2022-08-17T18:49:45.913Z,3.53
2022-08-17T18:52:43.128Z,3.57
2022-08-17T18:55:36.050Z,3.47
2022-08-17T18:58:20.250Z,4.20
2022-08-17T19:00:49.238Z,5.37
2022-08-17T19:03:16.928Z,5.37
2022-08-17T19:05:48.362Z,4.53
2022-08-17T19:08:25.311Z,4.10
2022-08-17T19:10:57.628Z,3.67
2022-08-17T19:13:31.686Z,3.50
2022-08-17T19:16:17.618Z,3.83
2022-08-17T19:18:58.836Z,4.10
2022-08-17T19:21:30.856Z,3.93
2022-08-17T19:24:12.113Z,4.00
2022-08-17T19:26:55.710Z,3.80
2022-08-17T19:29:48.377Z,3.43
2022-08-17T19:32:21.474Z,4.03
2022-08-17T19:34:49.221Z,3.70
2022-08-17T19:37:42.301Z,3.90
2022-08-17T19:40:52.752Z,4.37
2022-08-17T19:43:36.423Z,3.60
2022-08-17T19:46:18.245Z,4.23
2022-08-17T19:49:10.790Z,3.90
2022-08-17T19:51:52.418Z,4.20
2022-08-17T19:54:29.485Z,3.53
2022-08-17T19:57:17.157Z,4.23
2022-08-17T20:00:00.805Z,3.77
2022-08-17T20:02:41.910Z,3.50
2022-08-17T20:05:17.578Z,4.87
2022-08-17T20:07:58.227Z,32.50
2022-08-17T20:10:34.168Z,4.50
2022-08-17T20:13:08.887Z,3.80
2022-08-17T20:15:40.612Z,4.17
2022-08-17T20:18:17.495Z,3.93
2022-08-17T20:21:07.382Z,3.90
2022-08-17T20:24:04.821Z,3.30
2022-08-17T20:26:58.011Z,4.43
2022-08-17T20:29:48.727Z,3.90
2022-08-17T20:32:26.251Z,4.20
2022-08-17T20:35:16.909Z,3.90
2022-08-17T20:37:52.996Z,3.93
2022-08-17T20:40:24.482Z,4.27
2022-08-17T20:42:53.753Z,4.23
2022-08-17T20:45:20.695Z,3.67
2022-08-17T20:48:22.193Z,4.00
2022-08-17T20:50:51.529Z,4.50
2022-08-17T20:53:49.664Z,3.93
2022-08-17T20:56:44.781Z,4.10
2022-08-17T20:59:30.407Z,3.97
2022-08-17T21:02:12.407Z,3.87
2022-08-17T21:04:52.986Z,3.60
2022-08-17T21:07:29.320Z,3.87
2022-08-17T21:10:14.119Z,4.27
2022-08-17T21:12:48.121Z,4.37
2022-08-17T21:15:40.599Z,4.63
2022-08-17T21:18:29.527Z,4.43
2022-08-17T21:21:28.575Z,4.30
2022-08-17T21:24:23.694Z,4.03
2022-08-17T21:27:12.319Z,5.10
2022-08-17T21:30:11.923Z,4.10
2022-08-17T21:32:41.909Z,4.70
2022-08-17T21:35:29.345Z,4.03
2022-08-17T21:38:04.397Z,4.17
2022-08-17T21:40:33.646Z,3.70
2022-08-17T21:43:24.665Z,3.80
2022-08-17T21:45:58.778Z,4.23
2022-08-17T21:48:28.043Z,4.77
2022-08-17T21:51:14.098Z,4.63
2022-08-17T21:54:35.744Z,4.70
2022-08-17T21:57:07.267Z,4.27
2022-08-17T21:59:38.141Z,4.13
2022-08-17T22:02:09.137Z,4.17
2022-08-17T22:04:41.984Z,4.50
2022-08-17T22:07:12.085Z,4.23
2022-08-17T22:09:45.896Z,4.40
2022-08-17T22:12:17.483Z,4.13
2022-08-17T22:15:04.637Z,4.67
2022-08-17T22:17:36.677Z,4.43
2022-08-17T22:20:15.067Z,4.43
2022-08-17T22:23:08.023Z,4.53
2022-08-17T22:25:39.405Z,4.80
2022-08-17T22:28:08.835Z,4.50
2022-08-17T22:30:40.908Z,4.77
2022-08-17T22:33:32.935Z,4.80
2022-08-17T22:36:24.640Z,4.67
2022-08-17T22:38:58.664Z,6.17
2022-08-17T22:41:36.362Z,5.07
2022-08-17T22:44:36.228Z,5.20
2022-08-17T22:47:15.204Z,5.60
2022-08-17T22:49:57.734Z,5.30
2022-08-17T22:52:35.718Z,4.70
2022-08-17T22:55:33.192Z,5.00
2022-08-17T22:58:19.878Z,4.93
2022-08-17T23:00:49.512Z,4.77
2022-08-17T23:03:25.858Z,5.80
2022-08-17T23:06:11.989Z,4.57
2022-08-17T23:08:57.805Z,4.43
2022-08-17T23:11:49.547Z,4.73
2022-08-17T23:14:20.596Z,4.73
2022-08-17T23:16:51.082Z,4.30
2022-08-17T23:19:21.043Z,4.90
2022-08-17T23:21:50.504Z,4.47
2022-08-17T23:24:28.647Z,4.87
2022-08-17T23:26:59.608Z,4.47
2022-08-17T23:29:29.449Z,4.90
2022-08-17T23:32:00.121Z,4.80
2022-08-17T23:34:28.295Z,4.73
2022-08-17T23:36:56.234Z,5.40
2022-08-17T23:39:28.110Z,4.63
2022-08-17T23:41:59.061Z,5.10
2022-08-17T23:44:27.160Z,4.60
2022-08-17T23:46:55.215Z,5.13
2022-08-17T23:49:23.600Z,4.87
2022-08-17T23:51:53.680Z,5.20
2022-08-17T23:54:53.881Z,5.30
2022-08-17T23:57:33.586Z,5.30
